CPX781 Details

Departure: Taiwan Taoyuan International Airport (RCTP)
Arrival: Incheon International Airport (RKSI)
Route: PIANO1C PIANO L3 SALMI B576 SEL SEL1T


Current Weather Information
RCTP 221130Z 06021KT 8000 -RA FEW006 BKN009 BKN018 17/16 Q1016 NOSIG RMK A3001
RKSI 221130Z 31013KT CAVOK 05/M10 Q1022 NOSIG